sensor_id;sensor_type;location;lat;lon;timestamp;temperature;humidity
16074;DHT22;8141;52.664;5.074;2023-09-08T00:00:57;26.40;67.20
16074;DHT22;8141;52.664;5.074;2023-09-08T00:03:23;26.40;67.30
16074;DHT22;8141;52.664;5.074;2023-09-08T00:05:49;26.50;67.20
16074;DHT22;8141;52.664;5.074;2023-09-08T00:08:15;26.40;67.30
16074;DHT22;8141;52.664;5.074;2023-09-08T00:10:41;26.50;67.30
16074;DHT22;8141;52.664;5.074;2023-09-08T00:13:07;26.50;67.30
16074;DHT22;8141;52.664;5.074;2023-09-08T00:15:36;26.50;67.30
16074;DHT22;8141;52.664;5.074;2023-09-08T00:18:02;26.50;67.30
16074;DHT22;8141;52.664;5.074;2023-09-08T00:20:28;26.50;67.30
16074;DHT22;8141;52.664;5.074;2023-09-08T00:22:54;26.50;67.20
16074;DHT22;8141;52.664;5.074;2023-09-08T00:25:20;26.50;67.30
16074;DHT22;8141;52.664;5.074;2023-09-08T00:27:46;26.50;67.30
16074;DHT22;8141;52.664;5.074;2023-09-08T00:30:12;26.50;67.20
16074;DHT22;8141;52.664;5.074;2023-09-08T00:32:38;26.50;67.20
16074;DHT22;8141;52.664;5.074;2023-09-08T00:35:06;26.50;67.30
16074;DHT22;8141;52.664;5.074;2023-09-08T00:37:33;26.50;67.10
16074;DHT22;8141;52.664;5.074;2023-09-08T00:39:59;26.50;67.30
16074;DHT22;8141;52.664;5.074;2023-09-08T00:42:24;26.50;67.20
16074;DHT22;8141;52.664;5.074;2023-09-08T00:44:50;26.50;67.30
16074;DHT22;8141;52.664;5.074;2023-09-08T00:47:16;26.50;67.20
16074;DHT22;8141;52.664;5.074;2023-09-08T00:49:41;26.50;67.20
16074;DHT22;8141;52.664;5.074;2023-09-08T00:52:07;26.60;67.30
16074;DHT22;8141;52.664;5.074;2023-09-08T00:54:33;26.60;67.30
16074;DHT22;8141;52.664;5.074;2023-09-08T00:57:01;26.60;67.30
16074;DHT22;8141;52.664;5.074;2023-09-08T00:59:31;26.50;67.10
16074;DHT22;8141;52.664;5.074;2023-09-08T01:01:58;26.60;67.30
16074;DHT22;8141;52.664;5.074;2023-09-08T01:04:24;26.60;67.30
16074;DHT22;8141;52.664;5.074;2023-09-08T01:06:50;26.60;67.30
16074;DHT22;8141;52.664;5.074;2023-09-08T01:09:17;26.60;67.30
16074;DHT22;8141;52.664;5.074;2023-09-08T01:11:43;26.50;67.20
16074;DHT22;8141;52.664;5.074;2023-09-08T01:14:11;26.60;67.40
16074;DHT22;8141;52.664;5.074;2023-09-08T01:16:39;26.60;67.40
16074;DHT22;8141;52.664;5.074;2023-09-08T01:19:11;26.60;67.30
16074;DHT22;8141;52.664;5.074;2023-09-08T01:25:36;26.60;67.50
16074;DHT22;8141;52.664;5.074;2023-09-08T01:27:55;26.60;67.50
16074;DHT22;8141;52.664;5.074;2023-09-08T01:30:25;26.60;67.50
16074;DHT22;8141;52.664;5.074;2023-09-08T01:32:53;26.60;67.60
16074;DHT22;8141;52.664;5.074;2023-09-08T01:35:20;26.60;67.60
16074;DHT22;8141;52.664;5.074;2023-09-08T01:37:47;26.60;67.60
16074;DHT22;8141;52.664;5.074;2023-09-08T01:40:14;26.60;67.70
16074;DHT22;8141;52.664;5.074;2023-09-08T01:42:41;26.60;67.70
16074;DHT22;8141;52.664;5.074;2023-09-08T01:45:07;26.60;67.70
16074;DHT22;8141;52.664;5.074;2023-09-08T01:47:34;26.60;67.70
16074;DHT22;8141;52.664;5.074;2023-09-08T01:50:00;26.60;67.80
16074;DHT22;8141;52.664;5.074;2023-09-08T01:52:26;26.60;67.80
16074;DHT22;8141;52.664;5.074;2023-09-08T01:54:52;26.60;67.90
16074;DHT22;8141;52.664;5.074;2023-09-08T01:57:18;26.60;67.90
16074;DHT22;8141;52.664;5.074;2023-09-08T01:59:44;26.60;67.90
16074;DHT22;8141;52.664;5.074;2023-09-08T02:02:10;26.60;67.90
16074;DHT22;8141;52.664;5.074;2023-09-08T02:04:37;26.60;68.00
16074;DHT22;8141;52.664;5.074;2023-09-08T02:07:03;26.60;67.90
16074;DHT22;8141;52.664;5.074;2023-09-08T02:09:34;26.60;68.20
16074;DHT22;8141;52.664;5.074;2023-09-08T02:12:02;26.60;67.90
16074;DHT22;8141;52.664;5.074;2023-09-08T02:14:29;26.60;68.00
16074;DHT22;8141;52.664;5.074;2023-09-08T02:16:55;26.60;67.90
16074;DHT22;8141;52.664;5.074;2023-09-08T02:19:22;26.60;67.90
16074;DHT22;8141;52.664;5.074;2023-09-08T02:21:48;26.70;68.00
16074;DHT22;8141;52.664;5.074;2023-09-08T02:24:13;26.60;67.80
16074;DHT22;8141;52.664;5.074;2023-09-08T02:26:39;26.60;67.80
16074;DHT22;8141;52.664;5.074;2023-09-08T02:29:05;26.60;67.80
16074;DHT22;8141;52.664;5.074;2023-09-08T02:31:31;26.70;67.80
16074;DHT22;8141;52.664;5.074;2023-09-08T02:33:57;26.60;67.80
16074;DHT22;8141;52.664;5.074;2023-09-08T02:36:22;26.60;67.90
16074;DHT22;8141;52.664;5.074;2023-09-08T02:38:55;26.60;67.80
16074;DHT22;8141;52.664;5.074;2023-09-08T02:41:22;26.60;68.00
16074;DHT22;8141;52.664;5.074;2023-09-08T02:43:48;26.60;68.00
16074;DHT22;8141;52.664;5.074;2023-09-08T02:46:14;26.70;68.00
16074;DHT22;8141;52.664;5.074;2023-09-08T02:48:40;26.60;68.00
16074;DHT22;8141;52.664;5.074;2023-09-08T02:51:06;26.60;68.10
16074;DHT22;8141;52.664;5.074;2023-09-08T02:53:32;26.70;68.30
16074;DHT22;8141;52.664;5.074;2023-09-08T02:55:58;26.70;68.20
16074;DHT22;8141;52.664;5.074;2023-09-08T02:58:25;26.60;68.10
16074;DHT22;8141;52.664;5.074;2023-09-08T03:00:52;26.70;68.30
16074;DHT22;8141;52.664;5.074;2023-09-08T03:03:21;26.60;68.20
16074;DHT22;8141;52.664;5.074;2023-09-08T03:05:47;26.60;68.10
16074;DHT22;8141;52.664;5.074;2023-09-08T03:08:12;26.60;68.20
16074;DHT22;8141;52.664;5.074;2023-09-08T03:10:39;26.70;68.40
16074;DHT22;8141;52.664;5.074;2023-09-08T03:13:05;26.70;68.30
16074;DHT22;8141;52.664;5.074;2023-09-08T03:15:31;26.60;68.30
16074;DHT22;8141;52.664;5.074;2023-09-08T03:17:58;26.70;68.40
16074;DHT22;8141;52.664;5.074;2023-09-08T03:20:25;26.70;68.50
16074;DHT22;8141;52.664;5.074;2023-09-08T03:22:54;26.70;68.30
16074;DHT22;8141;52.664;5.074;2023-09-08T03:25:19;26.70;68.40
16074;DHT22;8141;52.664;5.074;2023-09-08T03:27:45;26.60;68.20
16074;DHT22;8141;52.664;5.074;2023-09-08T03:30:11;26.60;68.30
16074;DHT22;8141;52.664;5.074;2023-09-08T03:32:37;26.70;68.40
16074;DHT22;8141;52.664;5.074;2023-09-08T03:35:04;26.70;68.40
16074;DHT22;8141;52.664;5.074;2023-09-08T03:37:34;26.70;68.40
16074;DHT22;8141;52.664;5.074;2023-09-08T03:40:00;26.70;68.40
16074;DHT22;8141;52.664;5.074;2023-09-08T03:42:26;26.70;68.30
16074;DHT22;8141;52.664;5.074;2023-09-08T03:44:51;26.70;68.40
16074;DHT22;8141;52.664;5.074;2023-09-08T03:47:17;26.70;68.30
16074;DHT22;8141;52.664;5.074;2023-09-08T03:49:43;26.70;68.40
16074;DHT22;8141;52.664;5.074;2023-09-08T03:52:08;26.70;68.40
16074;DHT22;8141;52.664;5.074;2023-09-08T03:54:34;26.70;68.40
16074;DHT22;8141;52.664;5.074;2023-09-08T03:57:00;26.70;68.40
16074;DHT22;8141;52.664;5.074;2023-09-08T03:59:25;26.70;68.40
16074;DHT22;8141;52.664;5.074;2023-09-08T04:01:51;26.70;68.40
16074;DHT22;8141;52.664;5.074;2023-09-08T04:04:17;26.70;68.20
16074;DHT22;8141;52.664;5.074;2023-09-08T04:06:45;26.70;68.30
16074;DHT22;8141;52.664;5.074;2023-09-08T04:09:11;26.70;68.30
16074;DHT22;8141;52.664;5.074;2023-09-08T04:11:37;26.70;68.40
16074;DHT22;8141;52.664;5.074;2023-09-08T04:14:02;26.70;68.40
16074;DHT22;8141;52.664;5.074;2023-09-08T04:16:28;26.70;68.40
16074;DHT22;8141;52.664;5.074;2023-09-08T04:18:54;26.70;68.50
16074;DHT22;8141;52.664;5.074;2023-09-08T04:21:20;26.70;68.60
16074;DHT22;8141;52.664;5.074;2023-09-08T04:23:45;26.70;68.70
16074;DHT22;8141;52.664;5.074;2023-09-08T04:26:12;26.70;68.80
16074;DHT22;8141;52.664;5.074;2023-09-08T04:28:38;26.70;68.80
16074;DHT22;8141;52.664;5.074;2023-09-08T04:31:04;26.70;68.80
16074;DHT22;8141;52.664;5.074;2023-09-08T04:33:30;26.70;68.80
16074;DHT22;8141;52.664;5.074;2023-09-08T04:35:56;26.70;68.70
16074;DHT22;8141;52.664;5.074;2023-09-08T04:38:21;26.70;69.40
16074;DHT22;8141;52.664;5.074;2023-09-08T04:40:47;26.70;68.80
16074;DHT22;8141;52.664;5.074;2023-09-08T04:43:13;26.70;68.80
16074;DHT22;8141;52.664;5.074;2023-09-08T04:45:39;26.70;68.80
16074;DHT22;8141;52.664;5.074;2023-09-08T04:48:05;26.70;68.80
16074;DHT22;8141;52.664;5.074;2023-09-08T04:50:31;26.70;68.80
16074;DHT22;8141;52.664;5.074;2023-09-08T04:52:56;26.70;68.80
16074;DHT22;8141;52.664;5.074;2023-09-08T04:55:22;26.70;68.80
16074;DHT22;8141;52.664;5.074;2023-09-08T04:57:48;26.70;68.80
16074;DHT22;8141;52.664;5.074;2023-09-08T05:00:14;26.70;69.00
16074;DHT22;8141;52.664;5.074;2023-09-08T05:02:40;26.70;68.90
16074;DHT22;8141;52.664;5.074;2023-09-08T05:05:06;26.70;68.90
16074;DHT22;8141;52.664;5.074;2023-09-08T05:07:32;26.70;68.90
16074;DHT22;8141;52.664;5.074;2023-09-08T05:09:58;26.70;68.90
16074;DHT22;8141;52.664;5.074;2023-09-08T05:12:24;26.70;68.80
16074;DHT22;8141;52.664;5.074;2023-09-08T05:14:49;26.70;68.80
16074;DHT22;8141;52.664;5.074;2023-09-08T05:17:21;26.70;68.80
16074;DHT22;8141;52.664;5.074;2023-09-08T05:19:47;26.70;68.80
16074;DHT22;8141;52.664;5.074;2023-09-08T05:22:12;26.70;68.80
16074;DHT22;8141;52.664;5.074;2023-09-08T05:24:38;26.70;68.80
16074;DHT22;8141;52.664;5.074;2023-09-08T05:27:04;26.70;68.70
16074;DHT22;8141;52.664;5.074;2023-09-08T05:29:30;26.70;68.70
16074;DHT22;8141;52.664;5.074;2023-09-08T05:31:55;26.70;68.70
16074;DHT22;8141;52.664;5.074;2023-09-08T05:34:21;26.70;68.70
16074;DHT22;8141;52.664;5.074;2023-09-08T05:36:47;26.70;68.60
16074;DHT22;8141;52.664;5.074;2023-09-08T05:39:14;26.70;68.60
16074;DHT22;8141;52.664;5.074;2023-09-08T05:41:40;26.70;68.60
16074;DHT22;8141;52.664;5.074;2023-09-08T05:44:06;26.70;68.60
16074;DHT22;8141;52.664;5.074;2023-09-08T05:46:32;26.70;68.70
16074;DHT22;8141;52.664;5.074;2023-09-08T05:48:58;26.70;68.70
16074;DHT22;8141;52.664;5.074;2023-09-08T05:51:23;26.70;68.70
16074;DHT22;8141;52.664;5.074;2023-09-08T05:53:49;26.70;68.70
16074;DHT22;8141;52.664;5.074;2023-09-08T05:56:15;26.70;68.90
16074;DHT22;8141;52.664;5.074;2023-09-08T05:58:40;26.70;68.90
16074;DHT22;8141;52.664;5.074;2023-09-08T06:01:06;26.70;68.70
16074;DHT22;8141;52.664;5.074;2023-09-08T06:03:32;26.70;68.80
16074;DHT22;8141;52.664;5.074;2023-09-08T06:05:58;26.70;68.90
16074;DHT22;8141;52.664;5.074;2023-09-08T06:08:24;26.70;68.90
16074;DHT22;8141;52.664;5.074;2023-09-08T06:10:50;26.70;69.10
16074;DHT22;8141;52.664;5.074;2023-09-08T06:13:15;26.70;69.10
16074;DHT22;8141;52.664;5.074;2023-09-08T06:15:41;26.70;69.20
16074;DHT22;8141;52.664;5.074;2023-09-08T06:18:07;26.70;69.40
16074;DHT22;8141;52.664;5.074;2023-09-08T06:20:33;26.70;69.40
16074;DHT22;8141;52.664;5.074;2023-09-08T06:22:59;26.80;69.60
16074;DHT22;8141;52.664;5.074;2023-09-08T06:25:26;26.80;69.90
16074;DHT22;8141;52.664;5.074;2023-09-08T06:27:52;26.80;69.80
16074;DHT22;8141;52.664;5.074;2023-09-08T06:30:18;26.80;68.80
16074;DHT22;8141;52.664;5.074;2023-09-08T06:32:43;26.80;68.50
16074;DHT22;8141;52.664;5.074;2023-09-08T06:35:10;26.70;67.90
16074;DHT22;8141;52.664;5.074;2023-09-08T06:37:39;26.70;67.70
16074;DHT22;8141;52.664;5.074;2023-09-08T06:40:06;26.70;67.70
16074;DHT22;8141;52.664;5.074;2023-09-08T06:42:32;26.70;68.00
16074;DHT22;8141;52.664;5.074;2023-09-08T06:45:01;26.70;67.30
16074;DHT22;8141;52.664;5.074;2023-09-08T06:47:27;26.60;67.40
16074;DHT22;8141;52.664;5.074;2023-09-08T06:49:52;26.60;66.80
16074;DHT22;8141;52.664;5.074;2023-09-08T06:52:18;26.50;66.70
16074;DHT22;8141;52.664;5.074;2023-09-08T06:54:44;26.50;66.60
16074;DHT22;8141;52.664;5.074;2023-09-08T06:57:13;26.50;66.60
16074;DHT22;8141;52.664;5.074;2023-09-08T06:59:39;26.50;67.00
16074;DHT22;8141;52.664;5.074;2023-09-08T07:02:04;26.50;66.70
16074;DHT22;8141;52.664;5.074;2023-09-08T07:04:30;26.50;66.70
16074;DHT22;8141;52.664;5.074;2023-09-08T07:06:57;26.50;66.50
16074;DHT22;8141;52.664;5.074;2023-09-08T07:09:22;26.40;66.40
16074;DHT22;8141;52.664;5.074;2023-09-08T07:11:48;26.40;66.30
16074;DHT22;8141;52.664;5.074;2023-09-08T07:14:14;26.40;66.30
16074;DHT22;8141;52.664;5.074;2023-09-08T07:16:40;26.40;66.40
16074;DHT22;8141;52.664;5.074;2023-09-08T07:19:05;26.40;66.20
16074;DHT22;8141;52.664;5.074;2023-09-08T07:21:31;26.40;66.50
16074;DHT22;8141;52.664;5.074;2023-09-08T07:23:57;26.40;66.40
16074;DHT22;8141;52.664;5.074;2023-09-08T07:26:23;26.40;66.80
16074;DHT22;8141;52.664;5.074;2023-09-08T07:28:49;26.40;66.70
16074;DHT22;8141;52.664;5.074;2023-09-08T07:31:16;26.40;66.70
16074;DHT22;8141;52.664;5.074;2023-09-08T07:33:42;26.40;66.80
16074;DHT22;8141;52.664;5.074;2023-09-08T07:36:08;26.40;66.70
16074;DHT22;8141;52.664;5.074;2023-09-08T07:38:34;26.40;66.70
16074;DHT22;8141;52.664;5.074;2023-09-08T07:41:03;26.40;66.60
16074;DHT22;8141;52.664;5.074;2023-09-08T07:43:29;26.40;67.20
16074;DHT22;8141;52.664;5.074;2023-09-08T07:45:55;26.40;67.50
16074;DHT22;8141;52.664;5.074;2023-09-08T07:48:21;26.40;67.40
16074;DHT22;8141;52.664;5.074;2023-09-08T07:50:47;26.40;67.30
16074;DHT22;8141;52.664;5.074;2023-09-08T07:53:12;26.40;67.30
16074;DHT22;8141;52.664;5.074;2023-09-08T07:55:38;26.50;67.30
16074;DHT22;8141;52.664;5.074;2023-09-08T07:58:04;26.40;67.10
16074;DHT22;8141;52.664;5.074;2023-09-08T08:00:30;26.50;67.20
16074;DHT22;8141;52.664;5.074;2023-09-08T08:02:57;26.40;66.80
16074;DHT22;8141;52.664;5.074;2023-09-08T08:05:24;26.50;67.00
16074;DHT22;8141;52.664;5.074;2023-09-08T08:07:50;26.50;66.90
16074;DHT22;8141;52.664;5.074;2023-09-08T08:10:16;26.50;66.90
16074;DHT22;8141;52.664;5.074;2023-09-08T08:12:43;26.50;66.90
16074;DHT22;8141;52.664;5.074;2023-09-08T08:15:10;26.50;66.90
16074;DHT22;8141;52.664;5.074;2023-09-08T08:17:36;26.50;66.80
16074;DHT22;8141;52.664;5.074;2023-09-08T08:20:04;26.50;66.90
16074;DHT22;8141;52.664;5.074;2023-09-08T08:22:33;26.50;67.00
16074;DHT22;8141;52.664;5.074;2023-09-08T08:24:59;26.50;67.10
16074;DHT22;8141;52.664;5.074;2023-09-08T08:27:25;26.50;67.00
16074;DHT22;8141;52.664;5.074;2023-09-08T08:29:50;26.50;66.90
16074;DHT22;8141;52.664;5.074;2023-09-08T08:32:17;26.50;66.90
16074;DHT22;8141;52.664;5.074;2023-09-08T08:34:43;26.50;66.90
16074;DHT22;8141;52.664;5.074;2023-09-08T08:37:10;26.50;66.80
16074;DHT22;8141;52.664;5.074;2023-09-08T08:39:36;26.50;66.80
16074;DHT22;8141;52.664;5.074;2023-09-08T08:42:09;26.50;66.70
16074;DHT22;8141;52.664;5.074;2023-09-08T08:44:38;26.50;66.70
16074;DHT22;8141;52.664;5.074;2023-09-08T08:47:06;26.60;66.70
16074;DHT22;8141;52.664;5.074;2023-09-08T08:49:33;26.50;66.60
16074;DHT22;8141;52.664;5.074;2023-09-08T08:51:59;26.60;66.50
16074;DHT22;8141;52.664;5.074;2023-09-08T08:54:40;26.60;67.10
16074;DHT22;8141;52.664;5.074;2023-09-08T08:57:06;26.60;66.50
16074;DHT22;8141;52.664;5.074;2023-09-08T08:59:32;26.50;66.40
16074;DHT22;8141;52.664;5.074;2023-09-08T09:01:59;26.60;66.40
16074;DHT22;8141;52.664;5.074;2023-09-08T09:04:25;26.60;66.40
16074;DHT22;8141;52.664;5.074;2023-09-08T09:06:53;26.60;66.40
16074;DHT22;8141;52.664;5.074;2023-09-08T09:09:19;26.60;66.30
16074;DHT22;8141;52.664;5.074;2023-09-08T09:11:45;26.60;66.30
16074;DHT22;8141;52.664;5.074;2023-09-08T09:14:11;26.60;66.30
16074;DHT22;8141;52.664;5.074;2023-09-08T09:16:41;26.60;66.30
16074;DHT22;8141;52.664;5.074;2023-09-08T09:19:07;26.60;66.40
16074;DHT22;8141;52.664;5.074;2023-09-08T09:21:44;26.60;66.30
16074;DHT22;8141;52.664;5.074;2023-09-08T09:24:15;26.60;66.30
16074;DHT22;8141;52.664;5.074;2023-09-08T09:26:53;26.60;66.30
16074;DHT22;8141;52.664;5.074;2023-09-08T09:29:19;26.60;66.30
16074;DHT22;8141;52.664;5.074;2023-09-08T09:31:52;26.60;66.30
16074;DHT22;8141;52.664;5.074;2023-09-08T09:34:20;26.60;66.30
16074;DHT22;8141;52.664;5.074;2023-09-08T09:36:48;26.70;66.40
16074;DHT22;8141;52.664;5.074;2023-09-08T09:39:22;26.70;66.40
16074;DHT22;8141;52.664;5.074;2023-09-08T09:41:53;26.70;66.40
16074;DHT22;8141;52.664;5.074;2023-09-08T09:44:21;26.60;66.50
16074;DHT22;8141;52.664;5.074;2023-09-08T09:46:48;26.70;66.60
16074;DHT22;8141;52.664;5.074;2023-09-08T09:49:15;26.70;66.60
16074;DHT22;8141;52.664;5.074;2023-09-08T09:51:46;26.70;66.60
16074;DHT22;8141;52.664;5.074;2023-09-08T09:54:14;26.70;66.70
16074;DHT22;8141;52.664;5.074;2023-09-08T09:56:41;26.70;67.00
16074;DHT22;8141;52.664;5.074;2023-09-08T09:59:14;26.70;67.10
16074;DHT22;8141;52.664;5.074;2023-09-08T10:01:41;26.80;67.10
16074;DHT22;8141;52.664;5.074;2023-09-08T10:04:08;26.70;66.90
16074;DHT22;8141;52.664;5.074;2023-09-08T10:06:37;26.80;66.90
16074;DHT22;8141;52.664;5.074;2023-09-08T10:09:05;26.80;66.90
16074;DHT22;8141;52.664;5.074;2023-09-08T10:11:44;26.80;66.90
16074;DHT22;8141;52.664;5.074;2023-09-08T10:14:14;26.80;66.90
16074;DHT22;8141;52.664;5.074;2023-09-08T10:16:42;26.80;66.80
16074;DHT22;8141;52.664;5.074;2023-09-08T10:19:10;26.80;66.90
16074;DHT22;8141;52.664;5.074;2023-09-08T10:21:41;26.80;66.80
16074;DHT22;8141;52.664;5.074;2023-09-08T10:24:14;26.80;66.70
16074;DHT22;8141;52.664;5.074;2023-09-08T10:26:44;26.80;66.70
16074;DHT22;8141;52.664;5.074;2023-09-08T10:29:13;26.80;66.70
16074;DHT22;8141;52.664;5.074;2023-09-08T10:31:39;26.80;66.70
16074;DHT22;8141;52.664;5.074;2023-09-08T10:34:05;26.90;66.80
16074;DHT22;8141;52.664;5.074;2023-09-08T10:36:34;26.90;66.80
16074;DHT22;8141;52.664;5.074;2023-09-08T10:39:32;26.90;66.80
16074;DHT22;8141;52.664;5.074;2023-09-08T10:47:22;26.90;67.00
16074;DHT22;8141;52.664;5.074;2023-09-08T10:49:52;26.90;67.10
16074;DHT22;8141;52.664;5.074;2023-09-08T10:52:22;26.90;67.10
16074;DHT22;8141;52.664;5.074;2023-09-08T10:54:50;26.90;67.10
16074;DHT22;8141;52.664;5.074;2023-09-08T10:57:22;26.90;67.00
16074;DHT22;8141;52.664;5.074;2023-09-08T10:59:57;26.90;67.00
16074;DHT22;8141;52.664;5.074;2023-09-08T11:02:38;26.90;67.10
16074;DHT22;8141;52.664;5.074;2023-09-08T11:05:13;26.90;67.10
16074;DHT22;8141;52.664;5.074;2023-09-08T11:07:41;27.00;67.10
16074;DHT22;8141;52.664;5.074;2023-09-08T11:10:09;27.00;67.20
16074;DHT22;8141;52.664;5.074;2023-09-08T11:12:35;27.00;67.20
16074;DHT22;8141;52.664;5.074;2023-09-08T11:15:04;27.00;67.20
16074;DHT22;8141;52.664;5.074;2023-09-08T11:17:32;27.00;67.10
16074;DHT22;8141;52.664;5.074;2023-09-08T11:20:00;27.00;67.20
16074;DHT22;8141;52.664;5.074;2023-09-08T11:22:26;27.00;67.20
16074;DHT22;8141;52.664;5.074;2023-09-08T11:24:53;27.00;67.20
16074;DHT22;8141;52.664;5.074;2023-09-08T11:27:20;27.00;67.20
16074;DHT22;8141;52.664;5.074;2023-09-08T11:29:46;27.00;67.20
16074;DHT22;8141;52.664;5.074;2023-09-08T11:32:12;27.00;67.20
16074;DHT22;8141;52.664;5.074;2023-09-08T11:34:38;27.00;67.10
16074;DHT22;8141;52.664;5.074;2023-09-08T11:37:14;27.00;67.10
16074;DHT22;8141;52.664;5.074;2023-09-08T11:39:42;27.00;67.20
16074;DHT22;8141;52.664;5.074;2023-09-08T11:42:15;27.00;67.20
16074;DHT22;8141;52.664;5.074;2023-09-08T11:44:42;27.00;67.20
16074;DHT22;8141;52.664;5.074;2023-09-08T11:47:09;27.00;67.20
16074;DHT22;8141;52.664;5.074;2023-09-08T11:49:37;27.10;67.30
16074;DHT22;8141;52.664;5.074;2023-09-08T11:52:04;27.00;67.20
16074;DHT22;8141;52.664;5.074;2023-09-08T11:54:31;27.10;67.30
16074;DHT22;8141;52.664;5.074;2023-09-08T11:57:00;27.10;67.30
16074;DHT22;8141;52.664;5.074;2023-09-08T11:59:28;27.10;67.20
16074;DHT22;8141;52.664;5.074;2023-09-08T12:01:56;27.10;67.30
16074;DHT22;8141;52.664;5.074;2023-09-08T12:04:22;27.10;67.90
16074;DHT22;8141;52.664;5.074;2023-09-08T12:06:49;27.10;67.30
16074;DHT22;8141;52.664;5.074;2023-09-08T12:09:15;27.10;67.30
16074;DHT22;8141;52.664;5.074;2023-09-08T12:11:42;27.10;67.30
16074;DHT22;8141;52.664;5.074;2023-09-08T12:14:11;27.10;67.30
16074;DHT22;8141;52.664;5.074;2023-09-08T12:16:39;27.10;67.30
16074;DHT22;8141;52.664;5.074;2023-09-08T12:19:06;27.10;67.20
16074;DHT22;8141;52.664;5.074;2023-09-08T12:21:42;27.10;67.20
16074;DHT22;8141;52.664;5.074;2023-09-08T12:24:20;27.10;67.20
16074;DHT22;8141;52.664;5.074;2023-09-08T12:26:45;27.20;67.30
16074;DHT22;8141;52.664;5.074;2023-09-08T12:29:14;27.20;67.20
16074;DHT22;8141;52.664;5.074;2023-09-08T12:31:40;27.20;67.10
16074;DHT22;8141;52.664;5.074;2023-09-08T12:34:05;27.10;67.10
16074;DHT22;8141;52.664;5.074;2023-09-08T12:36:35;27.20;67.10
16074;DHT22;8141;52.664;5.074;2023-09-08T12:39:04;27.10;67.10
16074;DHT22;8141;52.664;5.074;2023-09-08T12:41:30;27.20;67.10
16074;DHT22;8141;52.664;5.074;2023-09-08T12:43:56;27.10;67.00
16074;DHT22;8141;52.664;5.074;2023-09-08T12:46:21;27.20;67.10
16074;DHT22;8141;52.664;5.074;2023-09-08T12:48:47;27.20;67.10
16074;DHT22;8141;52.664;5.074;2023-09-08T12:51:13;27.20;67.10
16074;DHT22;8141;52.664;5.074;2023-09-08T12:53:38;27.20;67.10
16074;DHT22;8141;52.664;5.074;2023-09-08T12:56:04;27.20;67.10
16074;DHT22;8141;52.664;5.074;2023-09-08T12:58:30;27.20;67.10
16074;DHT22;8141;52.664;5.074;2023-09-08T13:00:56;27.20;67.00
16074;DHT22;8141;52.664;5.074;2023-09-08T13:03:22;27.20;67.00
16074;DHT22;8141;52.664;5.074;2023-09-08T13:05:48;27.20;67.00
16074;DHT22;8141;52.664;5.074;2023-09-08T13:08:13;27.20;67.00
16074;DHT22;8141;52.664;5.074;2023-09-08T13:10:40;27.20;67.00
16074;DHT22;8141;52.664;5.074;2023-09-08T13:13:07;27.20;67.00
16074;DHT22;8141;52.664;5.074;2023-09-08T13:15:32;27.20;67.00
16074;DHT22;8141;52.664;5.074;2023-09-08T13:17:58;27.30;67.10
16074;DHT22;8141;52.664;5.074;2023-09-08T13:20:24;27.20;67.10
16074;DHT22;8141;52.664;5.074;2023-09-08T13:22:50;27.30;66.80
16074;DHT22;8141;52.664;5.074;2023-09-08T13:25:15;27.20;67.10
16074;DHT22;8141;52.664;5.074;2023-09-08T13:27:41;27.30;67.20
16074;DHT22;8141;52.664;5.074;2023-09-08T13:30:14;27.20;67.10
16074;DHT22;8141;52.664;5.074;2023-09-08T13:32:41;27.30;67.20
16074;DHT22;8141;52.664;5.074;2023-09-08T13:35:07;27.30;67.20
16074;DHT22;8141;52.664;5.074;2023-09-08T13:37:34;27.20;67.10
16074;DHT22;8141;52.664;5.074;2023-09-08T13:40:01;27.30;67.20
16074;DHT22;8141;52.664;5.074;2023-09-08T13:42:29;27.30;67.20
16074;DHT22;8141;52.664;5.074;2023-09-08T13:44:54;27.30;67.30
16074;DHT22;8141;52.664;5.074;2023-09-08T13:47:20;27.30;67.20
16074;DHT22;8141;52.664;5.074;2023-09-08T13:49:46;27.30;67.20
16074;DHT22;8141;52.664;5.074;2023-09-08T13:52:12;27.30;67.20
16074;DHT22;8141;52.664;5.074;2023-09-08T13:54:38;27.30;67.20
16074;DHT22;8141;52.664;5.074;2023-09-08T13:57:05;27.30;67.10
16074;DHT22;8141;52.664;5.074;2023-09-08T13:59:31;27.30;67.10
16074;DHT22;8141;52.664;5.074;2023-09-08T14:01:57;27.30;67.20
16074;DHT22;8141;52.664;5.074;2023-09-08T14:04:24;27.30;67.10
16074;DHT22;8141;52.664;5.074;2023-09-08T14:06:50;27.30;67.20
16074;DHT22;8141;52.664;5.074;2023-09-08T14:09:16;27.30;67.20
16074;DHT22;8141;52.664;5.074;2023-09-08T14:11:42;27.30;67.20
16074;DHT22;8141;52.664;5.074;2023-09-08T14:14:08;27.30;67.20
16074;DHT22;8141;52.664;5.074;2023-09-08T14:16:34;27.40;67.30
16074;DHT22;8141;52.664;5.074;2023-09-08T14:19:00;27.30;67.20
16074;DHT22;8141;52.664;5.074;2023-09-08T14:21:26;27.30;67.20
16074;DHT22;8141;52.664;5.074;2023-09-08T14:23:54;27.40;67.70
16074;DHT22;8141;52.664;5.074;2023-09-08T14:26:26;27.40;67.80
16074;DHT22;8141;52.664;5.074;2023-09-08T14:28:51;27.40;68.30
16074;DHT22;8141;52.664;5.074;2023-09-08T14:31:18;27.40;68.40
16074;DHT22;8141;52.664;5.074;2023-09-08T14:33:45;27.50;68.10
16074;DHT22;8141;52.664;5.074;2023-09-08T14:36:10;27.50;67.80
16074;DHT22;8141;52.664;5.074;2023-09-08T14:38:36;27.50;67.60
16074;DHT22;8141;52.664;5.074;2023-09-08T14:41:02;27.50;67.60
16074;DHT22;8141;52.664;5.074;2023-09-08T14:43:29;27.50;67.50
16074;DHT22;8141;52.664;5.074;2023-09-08T14:45:55;27.60;67.40
16074;DHT22;8141;52.664;5.074;2023-09-08T14:48:24;27.60;67.50
16074;DHT22;8141;52.664;5.074;2023-09-08T14:50:50;27.60;67.30
16074;DHT22;8141;52.664;5.074;2023-09-08T14:53:16;27.60;67.30
16074;DHT22;8141;52.664;5.074;2023-09-08T14:55:42;27.60;67.20
16074;DHT22;8141;52.664;5.074;2023-09-08T14:58:10;27.60;67.20
16074;DHT22;8141;52.664;5.074;2023-09-08T15:00:40;27.60;67.10
16074;DHT22;8141;52.664;5.074;2023-09-08T15:03:06;27.60;67.10
16074;DHT22;8141;52.664;5.074;2023-09-08T15:05:34;27.60;67.10
16074;DHT22;8141;52.664;5.074;2023-09-08T15:08:00;27.60;67.10
16074;DHT22;8141;52.664;5.074;2023-09-08T15:10:27;27.60;67.10
16074;DHT22;8141;52.664;5.074;2023-09-08T15:12:53;27.60;67.00
16074;DHT22;8141;52.664;5.074;2023-09-08T15:15:19;27.60;67.00
16074;DHT22;8141;52.664;5.074;2023-09-08T15:17:57;27.60;66.90
16074;DHT22;8141;52.664;5.074;2023-09-08T15:20:24;27.70;67.40
16074;DHT22;8141;52.664;5.074;2023-09-08T15:22:50;27.70;67.00
16074;DHT22;8141;52.664;5.074;2023-09-08T15:25:15;27.70;67.00
16074;DHT22;8141;52.664;5.074;2023-09-08T15:27:41;27.70;66.90
16074;DHT22;8141;52.664;5.074;2023-09-08T15:30:08;27.70;66.90
16074;DHT22;8141;52.664;5.074;2023-09-08T15:32:34;27.70;66.90
16074;DHT22;8141;52.664;5.074;2023-09-08T15:35:00;27.70;66.80
16074;DHT22;8141;52.664;5.074;2023-09-08T15:37:26;27.70;66.80
16074;DHT22;8141;52.664;5.074;2023-09-08T15:39:51;27.70;66.80
16074;DHT22;8141;52.664;5.074;2023-09-08T15:42:17;27.70;66.90
16074;DHT22;8141;52.664;5.074;2023-09-08T15:44:43;27.70;66.90
16074;DHT22;8141;52.664;5.074;2023-09-08T15:47:09;27.70;66.80
16074;DHT22;8141;52.664;5.074;2023-09-08T15:49:34;27.70;67.50
16074;DHT22;8141;52.664;5.074;2023-09-08T15:52:00;27.70;66.80